Time;durP1;ratioP1;P1;durP2;ratioP2;P2;SDS_P1;SDS_P2;PMS_P1;PMS_P2;Temp;Humidity;BMP_temperature;BMP_pressure;BME280_temperature;BME280_humidity;BME280_pressure;Samples;Min_cycle;Max_cycle;Signal;HPM_P1;HPM_P2
2023/03/08 00:01:13;;;;;;;36.05;25.17;;;4.40;99.90;;;;;;5023721;28;20029;-88
2023/03/08 00:03:39;;;;;;;34.10;24.45;;;4.50;99.90;;;;;;5029015;28;20017;-88
2023/03/08 00:06:10;;;;;;;33.33;24.77;;;4.50;99.90;;;;;;5022789;28;20501;-88
2023/03/08 00:08:35;;;;;;;35.45;24.70;;;4.10;99.90;;;;;;5022794;28;20080;-87
2023/03/08 00:11:05;;;;;;;36.65;23.60;;;4.50;99.90;;;;;;5015244;28;20697;-87
2023/03/08 00:13:31;;;;;;;35.10;24.45;;;4.00;99.90;;;;;;5033119;28;20033;-87
2023/03/08 00:16:01;;;;;;;37.72;24.90;;;4.20;99.90;;;;;;5021028;28;20474;-88
2023/03/08 00:18:27;;;;;;;40.00;25.63;;;4.10;99.90;;;;;;5021150;28;20525;-88
2023/03/08 00:21:00;;;;;;;34.45;24.50;;;3.90;99.90;;;;;;5017193;28;20026;-88
2023/03/08 00:23:26;;;;;;;34.15;24.02;;;3.80;99.90;;;;;;5034671;28;20487;-88
2023/03/08 00:25:53;;;;;;;33.53;23.35;;;4.20;99.90;;;;;;5023761;28;20061;-88
2023/03/08 00:28:18;;;;;;;32.50;23.85;;;3.70;99.90;;;;;;5033714;28;20034;-88
2023/03/08 00:30:44;;;;;;;32.67;23.27;;;4.20;99.90;;;;;;5007481;28;20377;-88
2023/03/08 00:33:09;;;;;;;34.83;24.70;;;4.10;99.90;;;;;;5005354;28;20065;-87
2023/03/08 00:35:35;;;;;;;35.53;23.67;;;4.00;99.90;;;;;;5024611;28;20030;-87
2023/03/08 00:38:01;;;;;;;31.65;22.75;;;3.90;99.90;;;;;;5017137;28;20036;-88
2023/03/08 00:40:26;;;;;;;31.52;22.60;;;4.20;99.90;;;;;;5022621;28;20385;-87
2023/03/08 00:42:52;;;;;;;35.55;24.70;;;4.20;99.90;;;;;;5030394;28;20477;-87
2023/03/08 00:45:17;;;;;;;36.50;25.60;;;4.20;99.90;;;;;;5027256;28;20078;-88
2023/03/08 00:47:43;;;;;;;39.47;27.02;;;3.90;99.90;;;;;;5004118;28;20037;-88
2023/03/08 00:50:09;;;;;;;35.45;24.60;;;3.90;99.90;;;;;;5015974;28;20025;-88
2023/03/08 00:52:35;;;;;;;35.33;25.35;;;3.90;99.90;;;;;;5000105;28;20041;-88
2023/03/08 00:55:00;;;;;;;31.90;23.38;;;4.40;99.90;;;;;;5013509;28;20022;-88
2023/03/08 00:57:26;;;;;;;31.52;22.75;;;4.40;99.90;;;;;;4996654;28;20564;-88
2023/03/08 00:59:51;;;;;;;31.27;22.40;;;4.20;99.90;;;;;;5013390;28;20029;-89
2023/03/08 01:02:17;;;;;;;33.03;23.77;;;4.10;99.90;;;;;;5013888;28;20113;-89
2023/03/08 01:04:43;;;;;;;31.65;22.48;;;4.10;99.90;;;;;;5028094;28;20331;-90
2023/03/08 01:07:08;;;;;;;30.33;21.77;;;4.30;99.90;;;;;;5033062;28;20033;-90
2023/03/08 01:09:34;;;;;;;33.83;22.88;;;3.80;99.90;;;;;;5033793;28;20101;-89
2023/03/08 01:12:00;;;;;;;31.88;22.00;;;4.10;99.90;;;;;;5015121;28;20037;-89
2023/03/08 01:14:25;;;;;;;33.85;24.30;;;4.20;99.90;;;;;;5032702;28;20076;-89
2023/03/08 01:16:51;;;;;;;33.90;23.73;;;4.20;99.90;;;;;;5030330;28;20036;-89
2023/03/08 01:19:16;;;;;;;34.50;24.25;;;4.00;99.90;;;;;;5009738;28;20029;-89
2023/03/08 01:21:42;;;;;;;38.17;28.17;;;4.10;99.90;;;;;;5016920;28;20061;-88
2023/03/08 01:24:08;;;;;;;41.03;28.23;;;3.90;99.90;;;;;;4996931;28;20488;-88
2023/03/08 01:26:33;;;;;;;33.95;24.00;;;4.00;99.90;;;;;;5026239;28;20033;-88
2023/03/08 01:28:59;;;;;;;31.55;23.05;;;4.20;99.90;;;;;;5012768;28;20022;-88
2023/03/08 01:31:27;;;;;;;33.00;22.63;;;3.80;99.90;;;;;;5018413;28;20116;-89
2023/03/08 01:33:53;;;;;;;30.92;22.35;;;4.20;99.90;;;;;;5013760;28;20037;-88
2023/03/08 01:36:21;;;;;;;32.28;22.77;;;3.70;99.90;;;;;;5015755;28;20485;-89
2023/03/08 01:38:48;;;;;;;34.75;25.08;;;4.30;99.90;;;;;;5029687;28;20076;-88
2023/03/08 01:41:17;;;;;;;35.22;24.63;;;4.10;99.90;;;;;;5017219;28;20144;-88
2023/03/08 01:43:43;;;;;;;33.40;22.88;;;3.70;99.90;;;;;;5019855;28;20033;-88
2023/03/08 01:46:28;;;;;;;28.85;20.80;;;3.80;99.90;;;;;;5028672;28;20032;-87
2023/03/08 01:49:02;;;;;;;32.97;20.90;;;3.50;99.90;;;;;;5026622;28;20135;-88
2023/03/08 01:51:44;;;;;;;30.35;20.33;;;3.40;99.90;;;;;;5019031;28;20421;-88
2023/03/08 01:54:24;;;;;;;25.98;18.77;;;3.30;99.90;;;;;;5016776;28;20049;-89
2023/03/08 01:56:53;;;;;;;28.85;19.58;;;3.10;99.90;;;;;;5028338;28;20033;-88
2023/03/08 01:59:21;;;;;;;30.33;20.63;;;3.10;99.90;;;;;;5028100;28;20034;-87
2023/03/08 02:01:47;;;;;;;33.55;23.38;;;3.40;99.90;;;;;;5001224;28;20041;-87
2023/03/08 02:04:13;;;;;;;34.78;25.73;;;3.10;99.90;;;;;;5014618;28;20515;-87
2023/03/08 02:06:40;;;;;;;29.55;22.83;;;3.20;99.90;;;;;;5022313;28;20114;-87
2023/03/08 02:09:06;;;;;;;36.13;26.08;;;3.20;99.90;;;;;;5030351;28;20051;-87
2023/03/08 02:11:35;;;;;;;30.80;23.23;;;3.10;99.90;;;;;;5027014;28;20029;-87
2023/03/08 02:14:01;;;;;;;30.52;21.90;;;3.00;99.90;;;;;;5009628;28;20026;-87
2023/03/08 02:16:27;;;;;;;31.73;22.30;;;3.20;99.90;;;;;;5018249;28;20025;-87
2023/03/08 02:18:59;;;;;;;29.08;20.60;;;3.10;99.90;;;;;;5024416;28;20439;-87
2023/03/08 02:21:27;;;;;;;26.95;18.90;;;3.50;99.90;;;;;;5028224;28;20064;-86
2023/03/08 02:23:54;;;;;;;31.83;23.48;;;3.10;99.90;;;;;;5015098;28;20033;-87
2023/03/08 02:26:20;;;;;;;35.38;24.77;;;3.60;99.90;;;;;;5023133;28;20394;-87
2023/03/08 02:28:46;;;;;;;33.50;23.42;;;3.00;99.90;;;;;;4998796;28;20176;-87
2023/03/08 02:31:12;;;;;;;28.80;20.88;;;3.40;99.90;;;;;;5017789;28;20512;-87
2023/03/08 02:33:38;;;;;;;27.83;19.25;;;3.40;99.90;;;;;;5026425;28;20033;-87
2023/03/08 02:36:06;;;;;;;27.80;18.73;;;3.60;99.90;;;;;;5009126;28;20112;-87
2023/03/08 02:38:32;;;;;;;28.38;18.88;;;3.40;99.90;;;;;;5018870;28;20044;-87
2023/03/08 02:40:57;;;;;;;32.92;19.83;;;3.40;99.90;;;;;;5031537;28;20025;-87
2023/03/08 02:43:23;;;;;;;26.85;20.10;;;3.40;99.90;;;;;;5023287;28;20072;-86
2023/03/08 02:45:49;;;;;;;34.40;22.25;;;3.90;99.90;;;;;;5012345;28;20038;-87
2023/03/08 02:48:15;;;;;;;27.45;20.10;;;3.50;99.90;;;;;;4994211;28;20038;-86
2023/03/08 02:50:41;;;;;;;28.65;19.27;;;3.90;99.90;;;;;;4993819;28;20022;-86
2023/03/08 02:53:07;;;;;;;27.83;18.85;;;3.60;99.90;;;;;;5011635;28;20124;-87
2023/03/08 02:55:35;;;;;;;29.20;19.80;;;3.80;99.90;;;;;;5000988;28;20018;-86
2023/03/08 02:58:04;;;;;;;27.50;19.10;;;3.50;99.90;;;;;;5031600;28;20056;-87
2023/03/08 03:00:30;;;;;;;27.90;18.42;;;3.50;99.90;;;;;;5030863;28;20021;-86
2023/03/08 03:02:56;;;;;;;24.65;17.55;;;3.60;99.90;;;;;;5030949;28;20036;-86
2023/03/08 03:05:21;;;;;;;26.60;19.08;;;3.60;99.90;;;;;;5005053;28;20026;-87
2023/03/08 03:07:47;;;;;;;27.20;19.05;;;4.20;99.90;;;;;;5017467;28;20037;-86
2023/03/08 03:10:13;;;;;;;25.85;19.00;;;4.00;99.90;;;;;;5029810;28;20029;-86
2023/03/08 03:12:39;;;;;;;27.05;18.83;;;4.10;99.90;;;;;;4998297;28;20078;-86
2023/03/08 03:15:07;;;;;;;24.35;17.55;;;4.60;99.90;;;;;;5016795;28;20026;-86
2023/03/08 03:17:33;;;;;;;24.50;17.88;;;4.30;99.90;;;;;;5018717;28;20493;-87
2023/03/08 03:19:58;;;;;;;27.30;18.10;;;4.80;99.90;;;;;;5008286;28;20049;-86
2023/03/08 03:22:24;;;;;;;27.90;18.98;;;4.70;99.90;;;;;;5007595;28;20107;-86
2023/03/08 03:24:50;;;;;;;27.23;18.25;;;4.80;99.90;;;;;;5029764;28;20017;-87
2023/03/08 03:27:17;;;;;;;25.58;18.65;;;5.00;99.90;;;;;;5008180;28;20430;-86
2023/03/08 03:29:43;;;;;;;24.50;17.38;;;5.10;99.90;;;;;;5000309;28;20021;-87
2023/03/08 03:32:08;;;;;;;22.13;16.73;;;4.70;99.90;;;;;;5024324;28;20398;-87
2023/03/08 03:34:34;;;;;;;26.48;18.38;;;5.10;99.90;;;;;;4997510;28;20030;-86
2023/03/08 03:36:59;;;;;;;25.25;18.42;;;5.00;99.90;;;;;;5001096;28;20034;-87
2023/03/08 03:39:25;;;;;;;23.90;18.13;;;5.00;99.90;;;;;;5025725;28;20025;-86
2023/03/08 03:41:51;;;;;;;26.60;18.73;;;5.10;99.90;;;;;;5011220;28;20037;-86
2023/03/08 03:44:17;;;;;;;23.63;16.33;;;5.00;99.90;;;;;;5019490;28;20018;-86
2023/03/08 03:46:42;;;;;;;25.00;17.08;;;4.80;99.90;;;;;;5020829;28;20034;-86
2023/03/08 03:49:08;;;;;;;24.15;17.13;;;4.50;99.90;;;;;;4998303;28;20401;-86
2023/03/08 03:51:34;;;;;;;23.90;17.42;;;4.80;99.90;;;;;;4999917;28;20030;-86
2023/03/08 03:53:59;;;;;;;22.17;16.33;;;4.40;99.90;;;;;;5031157;28;20033;-87
2023/03/08 03:56:26;;;;;;;22.98;16.08;;;4.90;99.90;;;;;;5026439;28;20462;-86
2023/03/08 03:58:52;;;;;;;22.13;15.80;;;4.30;99.90;;;;;;5020849;28;20050;-86
2023/03/08 04:01:24;;;;;;;23.98;16.17;;;4.20;99.90;;;;;;4999195;28;20021;-86
2023/03/08 04:03:51;;;;;;;23.40;15.93;;;4.30;99.90;;;;;;5015050;28;20030;-86
2023/03/08 04:06:26;;;;;;;20.77;15.95;;;3.90;99.90;;;;;;5023885;28;20509;-86
2023/03/08 04:08:57;;;;;;;22.90;16.38;;;4.00;99.90;;;;;;5016370;28;20041;-85
2023/03/08 04:11:26;;;;;;;21.20;15.73;;;3.90;99.90;;;;;;5025452;28;20044;-86
2023/03/08 04:13:52;;;;;;;19.30;13.95;;;4.40;99.90;;;;;;5014846;28;20040;-86
2023/03/08 04:16:20;;;;;;;22.98;15.63;;;4.00;99.90;;;;;;5008549;28;20029;-86
2023/03/08 04:18:46;;;;;;;25.55;17.30;;;4.20;99.90;;;;;;5031349;28;20029;-86
2023/03/08 04:21:13;;;;;;;23.83;17.13;;;4.40;99.90;;;;;;5015723;28;20033;-86
2023/03/08 04:23:39;;;;;;;22.92;16.98;;;4.50;99.90;;;;;;5025966;28;20030;-86
2023/03/08 04:26:06;;;;;;;24.67;15.90;;;4.60;99.90;;;;;;5027828;28;20045;-86
2023/03/08 04:28:32;;;;;;;21.02;14.70;;;4.80;99.90;;;;;;5025142;28;20037;-86
2023/03/08 04:30:58;;;;;;;19.35;14.20;;;5.10;99.90;;;;;;5032573;28;20017;-86
2023/03/08 04:33:24;;;;;;;18.90;12.77;;;5.00;99.90;;;;;;5016318;28;20021;-87
2023/03/08 04:35:51;;;;;;;18.65;11.82;;;5.20;99.90;;;;;;5024756;28;20521;-87
2023/03/08 04:38:17;;;;;;;14.55;11.13;;;5.40;99.90;;;;;;5014013;28;20056;-86
2023/03/08 04:41:01;;;;;;;16.38;10.55;;;6.00;99.90;;;;;;5015346;28;20030;-87
2023/03/08 04:43:31;;;;;;;14.25;10.70;;;5.70;99.90;;;;;;5027425;28;20025;-87
2023/03/08 04:45:58;;;;;;;15.38;11.07;;;6.10;99.90;;;;;;5019028;28;20018;-87
2023/03/08 04:48:24;;;;;;;15.25;11.07;;;6.20;99.90;;;;;;5031547;28;20051;-87
2023/03/08 04:50:58;;;;;;;13.30;9.75;;;6.20;99.90;;;;;;5029778;28;20029;-86
2023/03/08 04:53:24;;;;;;;13.65;10.20;;;6.40;99.90;;;;;;5013119;28;20034;-87
2023/03/08 04:55:50;;;;;;;13.93;9.52;;;6.40;99.90;;;;;;5013320;28;20022;-86
2023/03/08 04:58:17;;;;;;;12.95;9.35;;;6.40;99.90;;;;;;4995954;28;20049;-87
2023/03/08 05:00:43;;;;;;;14.18;9.73;;;6.40;99.90;;;;;;5013517;28;20108;-87
2023/03/08 05:03:09;;;;;;;13.10;8.93;;;6.10;99.90;;;;;;5018597;28;20029;-87
2023/03/08 05:05:34;;;;;;;11.48;8.43;;;6.50;99.90;;;;;;5033117;28;20022;-87
2023/03/08 05:08:04;;;;;;;12.05;8.57;;;6.30;99.90;;;;;;5032864;28;20030;-87
2023/03/08 05:10:31;;;;;;;11.15;8.77;;;6.40;99.90;;;;;;5032772;28;20049;-87
2023/03/08 05:12:57;;;;;;;11.23;8.63;;;6.30;99.90;;;;;;5033767;28;20116;-87
2023/03/08 05:15:23;;;;;;;11.55;8.85;;;6.30;99.90;;;;;;5032360;28;20446;-87
2023/03/08 05:17:49;;;;;;;12.27;7.88;;;6.30;99.90;;;;;;5032959;28;20045;-87
2023/03/08 05:20:15;;;;;;;9.93;7.60;;;6.40;99.90;;;;;;5031004;28;20030;-86
2023/03/08 05:22:40;;;;;;;9.18;7.30;;;6.40;99.90;;;;;;5019259;28;20073;-87
2023/03/08 05:25:06;;;;;;;10.57;7.38;;;6.50;99.90;;;;;;5014416;28;20102;-87
2023/03/08 05:27:33;;;;;;;9.82;8.05;;;6.50;99.90;;;;;;5008324;28;20039;-87
2023/03/08 05:29:58;;;;;;;9.98;7.68;;;6.40;99.90;;;;;;5018060;28;20017;-87
2023/03/08 05:32:24;;;;;;;8.77;6.75;;;6.60;99.90;;;;;;5027012;28;20045;-87
2023/03/08 05:34:51;;;;;;;9.85;7.00;;;6.40;99.90;;;;;;5014201;28;20509;-87
2023/03/08 05:37:17;;;;;;;10.15;7.13;;;6.40;99.90;;;;;;5026752;28;20068;-87
2023/03/08 05:39:43;;;;;;;10.07;7.15;;;6.50;99.90;;;;;;5015381;28;20034;-86
2023/03/08 05:42:10;;;;;;;8.23;6.47;;;6.60;99.90;;;;;;5013000;28;20091;-87
2023/03/08 05:44:36;;;;;;;7.85;6.25;;;6.40;99.90;;;;;;5019455;28;20107;-87
2023/03/08 05:47:02;;;;;;;8.23;6.32;;;6.50;99.90;;;;;;5009616;28;20485;-87
2023/03/08 05:49:28;;;;;;;9.98;6.88;;;6.50;99.90;;;;;;5002613;28;20080;-87
2023/03/08 05:51:54;;;;;;;10.05;6.28;;;6.50;99.90;;;;;;5028176;28;20049;-87
2023/03/08 05:54:20;;;;;;;8.63;6.03;;;6.60;99.90;;;;;;5029977;28;20048;-86
2023/03/08 05:56:46;;;;;;;8.05;6.22;;;6.50;99.90;;;;;;5030834;28;20481;-87
2023/03/08 05:59:12;;;;;;;7.97;5.75;;;6.60;99.90;;;;;;5014659;28;20053;-87
2023/03/08 06:01:40;;;;;;;10.65;6.25;;;6.50;99.90;;;;;;5025428;28;20040;-87
2023/03/08 06:04:06;;;;;;;8.77;5.85;;;6.50;99.90;;;;;;5004800;28;20058;-87
2023/03/08 06:06:31;;;;;;;9.27;6.32;;;6.50;99.90;;;;;;5006530;28;20104;-86
2023/03/08 06:08:57;;;;;;;9.43;6.28;;;6.70;99.90;;;;;;4997540;28;20027;-86
2023/03/08 06:11:23;;;;;;;10.75;6.30;;;6.40;99.90;;;;;;4981422;28;20034;-87
2023/03/08 06:13:48;;;;;;;10.23;6.38;;;6.40;99.90;;;;;;5007153;28;20506;-87
2023/03/08 06:16:14;;;;;;;10.60;6.25;;;6.40;99.90;;;;;;4994788;28;20074;-87
2023/03/08 06:18:41;;;;;;;9.35;5.43;;;6.40;99.90;;;;;;5010313;28;20092;-87
2023/03/08 06:21:14;;;;;;;8.07;5.60;;;6.40;99.90;;;;;;4994940;28;20077;-87
2023/03/08 06:23:40;;;;;;;11.65;6.15;;;6.40;99.90;;;;;;4992618;28;20030;-86
2023/03/08 06:26:08;;;;;;;9.95;6.32;;;6.30;99.90;;;;;;4998637;28;20439;-87
2023/03/08 06:28:34;;;;;;;8.73;5.25;;;6.50;99.90;;;;;;4992701;28;20395;-87
2023/03/08 06:31:00;;;;;;;9.38;6.25;;;6.40;99.90;;;;;;4981811;28;20030;-86
2023/03/08 06:33:28;;;;;;;8.63;5.68;;;6.50;99.90;;;;;;5004989;28;20041;-87
2023/03/08 06:36:06;;;;;;;8.27;5.53;;;6.60;99.90;;;;;;5008146;28;20033;-86
2023/03/08 06:38:34;;;;;;;8.95;5.38;;;6.50;99.90;;;;;;4998427;28;20042;-87
2023/03/08 06:41:00;;;;;;;7.65;5.18;;;6.60;99.90;;;;;;5002811;28;20497;-87
2023/03/08 06:43:26;;;;;;;11.77;5.13;;;6.50;99.90;;;;;;5009535;28;20505;-86
2023/03/08 06:45:52;;;;;;;9.80;5.25;;;6.50;99.90;;;;;;5003264;28;20026;-87
2023/03/08 06:48:18;;;;;;;6.28;4.78;;;6.50;99.90;;;;;;4995083;28;20089;-86
2023/03/08 06:50:43;;;;;;;8.57;5.30;;;6.60;99.90;;;;;;4995351;28;20068;-87
2023/03/08 06:53:11;;;;;;;5.88;4.15;;;6.70;99.90;;;;;;4996449;28;20046;-86
2023/03/08 06:55:38;;;;;;;5.28;3.70;;;6.80;99.90;;;;;;4992122;28;20121;-86
2023/03/08 06:58:04;;;;;;;4.43;3.63;;;6.80;99.90;;;;;;4992299;28;20065;-87
2023/03/08 07:00:30;;;;;;;7.32;4.65;;;6.80;99.90;;;;;;4992433;28;20106;-86
2023/03/08 07:02:56;;;;;;;10.65;4.78;;;6.80;99.90;;;;;;4974379;28;20081;-86
2023/03/08 07:05:21;;;;;;;8.18;5.22;;;6.80;99.90;;;;;;4991888;28;20494;-87
2023/03/08 07:07:48;;;;;;;7.90;4.65;;;6.80;99.90;;;;;;4991856;28;20483;-87
2023/03/08 07:10:15;;;;;;;10.00;4.80;;;6.80;99.90;;;;;;4992458;28;20356;-87
2023/03/08 07:12:42;;;;;;;6.22;4.40;;;6.80;99.90;;;;;;4992071;28;20039;-86
2023/03/08 07:15:15;;;;;;;6.82;4.22;;;6.90;99.90;;;;;;4974710;28;20026;-87
2023/03/08 07:17:41;;;;;;;7.97;4.55;;;6.80;99.90;;;;;;4992042;28;20035;-87
2023/03/08 07:20:09;;;;;;;6.95;4.32;;;6.90;99.90;;;;;;4991784;28;20018;-86
2023/03/08 07:22:34;;;;;;;5.78;3.97;;;7.00;99.90;;;;;;4974409;28;20050;-87
2023/03/08 07:25:00;;;;;;;4.72;3.83;;;7.10;99.90;;;;;;4993810;28;20038;-87
2023/03/08 07:27:26;;;;;;;5.15;3.70;;;7.10;99.90;;;;;;5012312;28;20026;-87
2023/03/08 07:29:51;;;;;;;5.40;4.03;;;7.30;99.90;;;;;;5011539;28;20083;-88
2023/03/08 07:32:17;;;;;;;5.47;3.60;;;7.10;99.90;;;;;;4991778;28;20129;-87
2023/03/08 07:34:43;;;;;;;6.88;3.55;;;7.20;99.90;;;;;;4991897;28;20050;-87
2023/03/08 07:37:15;;;;;;;4.30;3.05;;;7.30;99.90;;;;;;4991557;28;20030;-87
2023/03/08 07:39:41;;;;;;;4.43;3.60;;;7.20;99.90;;;;;;4997117;28;20398;-87
2023/03/08 07:42:09;;;;;;;7.57;3.70;;;7.20;99.90;;;;;;4984896;28;20399;-88
2023/03/08 07:44:36;;;;;;;5.40;3.38;;;7.30;99.90;;;;;;5000858;28;20109;-87
2023/03/08 07:47:02;;;;;;;8.18;4.00;;;7.30;99.90;;;;;;4984676;28;20116;-87
2023/03/08 07:49:29;;;;;;;5.43;3.92;;;7.30;99.90;;;;;;5007645;28;20030;-90
2023/03/08 07:51:55;;;;;;;5.88;3.20;;;7.40;99.90;;;;;;4994997;28;20038;-88
2023/03/08 07:54:21;;;;;;;5.57;3.30;;;7.50;99.90;;;;;;5007812;28;20033;-88
2023/03/08 07:56:47;;;;;;;4.30;3.22;;;7.50;99.90;;;;;;5000617;28;20030;-88
2023/03/08 07:59:12;;;;;;;5.80;3.70;;;7.50;99.90;;;;;;4979070;28;20556;-89
2023/03/08 08:01:38;;;;;;;4.32;3.20;;;7.60;99.90;;;;;;5005860;28;20022;-89
2023/03/08 08:04:03;;;;;;;4.65;3.05;;;7.60;99.90;;;;;;5014925;28;20042;-90
2023/03/08 08:06:29;;;;;;;4.70;3.60;;;7.70;99.90;;;;;;4997182;28;20025;-89
2023/03/08 08:08:56;;;;;;;5.45;3.25;;;7.70;99.90;;;;;;5011030;28;20038;-88
2023/03/08 08:11:22;;;;;;;4.00;2.83;;;7.80;99.90;;;;;;4998325;28;20026;-87
2023/03/08 08:13:48;;;;;;;4.07;2.13;;;7.90;99.90;;;;;;4995159;28;20039;-88
2023/03/08 08:16:15;;;;;;;3.25;2.42;;;8.00;99.90;;;;;;5007252;28;20073;-88
2023/03/08 08:18:41;;;;;;;4.47;2.40;;;8.20;99.90;;;;;;5014692;28;20025;-87
2023/03/08 08:21:13;;;;;;;3.10;2.30;;;8.30;99.90;;;;;;5014558;28;20022;-88
2023/03/08 08:23:40;;;;;;;3.45;2.00;;;8.50;99.90;;;;;;5014837;28;20026;-89
2023/03/08 08:26:08;;;;;;;2.40;1.75;;;8.50;99.90;;;;;;5015158;28;20026;-88
2023/03/08 08:28:34;;;;;;;2.63;2.10;;;8.60;99.90;;;;;;4992837;28;20027;-88
2023/03/08 08:31:02;;;;;;;2.53;2.08;;;8.70;99.90;;;;;;5001151;28;20524;-88
2023/03/08 08:33:29;;;;;;;4.82;2.08;;;8.80;99.90;;;;;;4994670;28;20142;-88
2023/03/08 08:35:55;;;;;;;3.75;1.95;;;8.80;99.90;;;;;;4995904;28;20030;-92
2023/03/08 08:38:21;;;;;;;2.78;1.60;;;8.80;99.90;;;;;;4998164;28;20041;-91
2023/03/08 08:40:47;;;;;;;2.38;1.60;;;8.90;99.90;;;;;;4997481;28;20121;-87
2023/03/08 08:43:13;;;;;;;3.78;1.80;;;9.00;99.90;;;;;;4996417;28;20425;-87
2023/03/08 08:45:57;;;;;;;1.90;1.63;;;9.10;99.90;;;;;;5013893;28;20044;-89
2023/03/08 08:48:24;;;;;;;2.33;1.80;;;9.30;99.90;;;;;;5014399;28;20113;-88
2023/03/08 08:50:50;;;;;;;2.75;1.80;;;9.50;99.90;;;;;;5014186;28;20068;-88
2023/03/08 08:53:16;;;;;;;3.22;1.67;;;9.70;99.90;;;;;;5014152;28;20405;-88
2023/03/08 08:55:41;;;;;;;3.42;1.95;;;9.80;99.90;;;;;;4996431;28;20298;-88
2023/03/08 08:58:07;;;;;;;2.90;1.70;;;10.50;99.90;;;;;;5014328;28;20137;-88
2023/03/08 09:00:34;;;;;;;2.42;2.00;;;11.40;99.90;;;;;;4996452;28;20037;-88
2023/03/08 09:03:00;;;;;;;2.10;1.90;;;12.50;99.90;;;;;;5013848;28;20082;-88
2023/03/08 09:05:26;;;;;;;3.22;1.60;;;11.50;99.90;;;;;;4996291;28;20124;-88
2023/03/08 09:07:53;;;;;;;2.30;1.80;;;12.10;99.90;;;;;;4998228;28;20125;-89
2023/03/08 09:10:19;;;;;;;2.05;1.70;;;11.90;99.90;;;;;;4985428;28;21034;-89
2023/03/08 09:12:45;;;;;;;2.25;1.50;;;11.30;99.90;;;;;;4978568;28;20044;-89
2023/03/08 09:15:11;;;;;;;3.15;1.95;;;11.10;99.90;;;;;;5002944;28;20033;-91
2023/03/08 09:17:38;;;;;;;2.28;1.60;;;11.10;99.90;;;;;;5014932;28;20475;-90
2023/03/08 09:20:07;;;;;;;2.72;1.90;;;11.10;99.90;;;;;;4995581;28;20355;-89
2023/03/08 09:22:34;;;;;;;2.97;1.80;;;11.00;99.90;;;;;;4995036;28;20113;-92
2023/03/08 09:25:00;;;;;;;1.90;1.70;;;11.80;99.90;;;;;;4983082;28;20030;-91
2023/03/08 09:27:25;;;;;;;2.70;2.05;;;13.30;99.90;;;;;;5014763;28;20080;-91
2023/03/08 09:29:51;;;;;;;1.63;1.52;;;12.50;99.90;;;;;;4996098;28;20033;-90
2023/03/08 09:32:16;;;;;;;2.88;2.00;;;12.20;99.90;;;;;;4998714;28;20490;-90
2023/03/08 09:34:42;;;;;;;4.35;2.40;;;13.00;99.90;;;;;;4994595;28;20022;-90
2023/03/08 09:37:10;;;;;;;2.72;1.88;;;12.80;99.90;;;;;;4994278;28;20042;-90
2023/03/08 09:39:37;;;;;;;2.78;1.75;;;12.50;99.90;;;;;;5009545;28;20041;-90
2023/03/08 09:42:05;;;;;;;1.50;1.38;;;11.90;99.90;;;;;;5014303;28;20058;-93
2023/03/08 09:44:47;;;;;;;2.03;1.40;;;11.70;99.90;;;;;;5013944;28;20026;-91
2023/03/08 09:47:24;;;;;;;2.72;1.75;;;11.70;99.90;;;;;;5013849;28;20065;-90
2023/03/08 09:49:53;;;;;;;2.13;1.50;;;11.40;99.90;;;;;;5003979;28;20040;-92
2023/03/08 09:52:27;;;;;;;1.73;1.50;;;11.40;99.90;;;;;;4993753;28;20048;-92
2023/03/08 09:54:53;;;;;;;2.20;1.60;;;11.30;99.90;;;;;;4998134;28;20029;-93
2023/03/08 09:57:25;;;;;;;3.00;1.85;;;11.20;99.90;;;;;;4977018;28;20050;-91
2023/03/08 09:59:55;;;;;;;3.47;1.70;;;11.30;99.90;;;;;;4993764;28;20026;-91
2023/03/08 10:03:12;;;;;;;1.90;1.30;;;11.30;99.90;;;;;;4976352;28;20039;-88
2023/03/08 10:06:02;;;;;;;2.90;1.63;;;11.50;99.90;;;;;;4948351;29;20039;-94
2023/03/08 10:08:51;;;;;;;3.42;1.45;;;11.90;99.90;;;;;;4953550;28;20046;-89
2023/03/08 10:11:38;;;;;;;1.60;1.50;;;12.40;99.90;;;;;;4936232;29;20031;-87
2023/03/08 10:14:20;;;;;;;2.75;1.70;;;12.40;99.90;;;;;;4935709;28;20071;-87
2023/03/08 10:16:52;;;;;;;2.22;1.63;;;12.50;99.90;;;;;;4953237;28;20035;-87
2023/03/08 10:19:34;;;;;;;2.05;1.58;;;12.90;99.90;;;;;;4953346;29;20028;-89
2023/03/08 10:22:07;;;;;;;3.58;1.88;;;12.80;99.90;;;;;;4936494;29;20037;-90
2023/03/08 10:25:10;;;;;;;4.63;2.00;;;12.40;99.90;;;;;;4952255;29;20028;-86
2023/03/08 10:27:35;;;;;;;3.28;1.80;;;12.40;99.90;;;;;;4951145;28;20210;-88
2023/03/08 10:30:12;;;;;;;3.47;1.60;;;12.30;99.90;;;;;;4970291;28;20063;-87
2023/03/08 10:32:47;;;;;;;4.28;1.77;;;12.20;99.90;;;;;;4955076;28;20038;-88
2023/03/08 10:35:14;;;;;;;2.42;1.92;;;12.40;99.90;;;;;;4961928;28;20058;-88
2023/03/08 10:37:40;;;;;;;4.60;1.50;;;12.30;99.90;;;;;;4960267;28;20070;-88
2023/03/08 10:40:09;;;;;;;1.52;1.35;;;12.20;99.90;;;;;;4958623;28;20031;-88
2023/03/08 10:42:36;;;;;;;4.35;1.55;;;12.20;99.90;;;;;;4997116;28;20539;-89
2023/03/08 10:45:20;;;;;;;3.67;2.00;;;12.20;99.90;;;;;;4994941;28;20027;-88
2023/03/08 10:47:58;;;;;;;2.70;1.58;;;12.20;99.90;;;;;;4996684;28;20033;-90
2023/03/08 10:50:28;;;;;;;3.17;1.80;;;12.10;99.90;;;;;;4990248;28;20486;-93
2023/03/08 10:52:54;;;;;;;1.95;1.70;;;12.00;99.90;;;;;;4984432;28;20061;-93
2023/03/08 10:55:28;;;;;;;4.03;1.85;;;11.90;99.90;;;;;;4983351;28;20030;-93
2023/03/08 10:57:55;;;;;;;1.67;1.50;;;12.00;99.90;;;;;;5010965;28;20127;-91
2023/03/08 11:00:33;;;;;;;3.03;1.42;;;12.00;99.90;;;;;;4992100;28;20030;-91
2023/03/08 11:03:13;;;;;;;1.92;1.45;;;12.00;99.90;;;;;;4976251;28;20033;-90
2023/03/08 11:05:39;;;;;;;4.10;1.33;;;12.00;99.90;;;;;;4994038;28;20041;-94
2023/03/08 11:08:17;;;;;;;3.35;1.40;;;12.00;99.90;;;;;;4990217;28;20128;-88
2023/03/08 11:10:43;;;;;;;1.90;1.38;;;12.00;99.90;;;;;;5012373;28;20038;-89
2023/03/08 11:13:24;;;;;;;2.35;1.67;;;12.00;99.90;;;;;;5006865;28;20067;-88
2023/03/08 11:16:12;;;;;;;2.13;1.50;;;12.00;99.90;;;;;;4992293;28;20034;-88
2023/03/08 11:19:05;;;;;;;3.28;1.48;;;12.00;99.90;;;;;;5003445;28;20026;-88
2023/03/08 11:22:02;;;;;;;3.40;2.08;;;12.10;99.90;;;;;;4992811;28;20033;-90
2023/03/08 11:25:03;;;;;;;3.00;2.00;;;12.20;99.90;;;;;;4994670;28;20018;-92
2023/03/08 11:27:43;;;;;;;2.70;1.80;;;12.20;99.90;;;;;;4918287;29;20532;-88
2023/03/08 11:30:22;;;;;;;4.32;2.00;;;12.30;99.90;;;;;;4914920;29;20039;-91
2023/03/08 11:33:09;;;;;;;3.35;2.00;;;12.20;99.90;;;;;;4936199;29;20055;-90
2023/03/08 11:35:43;;;;;;;2.85;1.70;;;12.00;99.90;;;;;;4925750;29;20469;-90
2023/03/08 11:38:13;;;;;;;3.38;1.73;;;12.00;99.90;;;;;;4919248;29;20044;-90
2023/03/08 11:40:56;;;;;;;1.75;1.60;;;11.90;99.90;;;;;;4917926;29;20061;-92
2023/03/08 11:43:32;;;;;;;2.03;1.20;;;11.90;99.90;;;;;;4906178;29;20470;-89
2023/03/08 11:46:12;;;;;;;2.70;1.83;;;11.80;99.90;;;;;;4920219;29;20040;-89
2023/03/08 11:48:38;;;;;;;2.60;1.92;;;11.80;99.90;;;;;;4918009;29;20024;-90
2023/03/08 11:51:26;;;;;;;2.28;1.90;;;11.60;99.90;;;;;;4917738;29;20581;-88
2023/03/08 11:54:02;;;;;;;2.58;1.70;;;11.50;99.90;;;;;;4928796;29;20087;-89
2023/03/08 11:56:39;;;;;;;2.80;2.13;;;11.50;99.90;;;;;;4935923;29;20063;-89
2023/03/08 11:59:32;;;;;;;3.08;1.60;;;11.40;99.90;;;;;;4919156;29;20079;-88
2023/03/08 12:02:06;;;;;;;1.60;1.40;;;11.40;99.90;;;;;;4932808;29;20047;-91
2023/03/08 12:04:41;;;;;;;3.47;1.50;;;11.30;99.90;;;;;;4976339;28;20101;-90
2023/03/08 12:07:24;;;;;;;2.30;1.50;;;11.30;99.90;;;;;;5004123;28;20029;-90
2023/03/08 12:10:02;;;;;;;3.35;1.50;;;11.40;99.90;;;;;;5002758;28;20059;-92
2023/03/08 12:12:48;;;;;;;1.88;1.70;;;11.40;99.90;;;;;;4995111;28;20034;-90
2023/03/08 12:16:06;;;;;;;1.67;1.45;;;11.40;99.90;;;;;;4995679;28;20034;-89
2023/03/08 12:18:35;;;;;;;2.05;1.40;;;11.40;99.90;;;;;;4989276;28;20399;-90
2023/03/08 12:21:22;;;;;;;1.83;1.60;;;11.40;99.90;;;;;;5015267;28;20471;-88
2023/03/08 12:24:03;;;;;;;3.85;1.75;;;11.50;99.90;;;;;;4988748;28;20030;-88
2023/03/08 12:26:38;;;;;;;2.90;1.63;;;11.50;99.90;;;;;;5005435;28;20027;-91
2023/03/08 12:29:19;;;;;;;3.78;2.08;;;11.70;99.90;;;;;;4987784;28;20018;-91
2023/03/08 12:31:47;;;;;;;3.47;2.20;;;11.90;99.90;;;;;;5016027;28;20501;-91
2023/03/08 12:34:40;;;;;;;2.60;1.88;;;12.30;99.90;;;;;;4995488;28;20485;-91
2023/03/08 12:37:27;;;;;;;3.05;2.17;;;12.30;99.90;;;;;;4987591;28;20506;-92
2023/03/08 12:40:07;;;;;;;4.50;1.60;;;12.20;99.90;;;;;;4996688;28;20159;-94
2023/03/08 12:42:39;;;;;;;2.28;1.55;;;12.00;99.90;;;;;;4996847;28;20039;-94
2023/03/08 12:45:18;;;;;;;1.80;1.40;;;11.90;99.90;;;;;;4996617;28;20023;-94
2023/03/08 12:48:03;;;;;;;6.38;2.28;;;11.70;99.90;;;;;;4979219;28;20049;-93
2023/03/08 12:50:56;;;;;;;2.65;1.58;;;11.70;99.90;;;;;;4996610;28;20026;-94
2023/03/08 12:53:49;;;;;;;2.85;1.70;;;11.50;99.90;;;;;;4993909;28;20093;-93
2023/03/08 12:56:23;;;;;;;2.97;2.10;;;11.40;99.90;;;;;;5007130;28;20486;-94
2023/03/08 12:58:54;;;;;;;2.97;2.22;;;11.30;99.90;;;;;;4997023;28;20549;-93